Brandelara II — CFN4334 — position and weather

sailwx.info

Track history (hours):
 
Tides and Currents Weather Stations Pressure Air Temp Water Temp Dewpoint Dewpoint Depression Visibility Wind Speed Wind Dir Waves Ship Positions

Brandelara II

Last reported at 2017-Sep-27 21:08 UTC. Time now 2017-Nov-23 02:05 UTC.
Position N 49°38' W 124°03'.
Warning: this ship's position is 56 days out of date.

Length 12 m.

Type: Sailing vessel. MMSI: 316016283.

Date/timePositionNaut miles runAvg speedWind from/ knotsBaromVisibWave heightAir tempDewpointWater temp
2017-Sep-27 21:08N 49°38' W 124°03'0 0.0
2017-Sep-27 20:59N 49°38' W 124°03'0 0.0
2017-Sep-27 20:29N 49°38' W 124°03'1 1.6
2017-Sep-27 20:00N 49°38' W 124°04'2 4.5
2017-Sep-27 19:30N 49°36' W 124°04'3 5.4
2017-Sep-27 19:00N 49°33' W 124°05'6 3.9
2017-Sep-27 17:22N 49°29' W 124°13'0 0.0
2017-Sep-27 17:00N 49°29' W 124°13'  
2017-Sep-24 01:51N 49°30' W 124°14'0 0.0
2017-Sep-24 01:30N 49°30' W 124°14'0 0.1
2017-Sep-24 01:00N 49°30' W 124°14'0 0.0
2017-Sep-24 00:30N 49°30' W 124°14'0 0.0
2017-Sep-24 00:00N 49°30' W 124°14'0 0.1
2017-Sep-23 23:31N 49°30' W 124°14'1 2.8
2017-Sep-23 23:00N 49°29' W 124°12'3 5.9
2017-Sep-23 22:30N 49°29' W 124°08'3 5.5
2017-Sep-23 21:59N 49°32' W 124°06'3 5.9
2017-Sep-23 21:30N 49°34' W 124°05'3 5.7
2017-Sep-23 21:00N 49°37' W 124°04'1 2.4
2017-Sep-23 20:30N 49°38' W 124°03'0 0.0
2017-Sep-23 20:00N 49°38' W 124°03'  
Track history (hours):
 
Tides and Currents Weather Stations Pressure Air Temp Water Temp Dewpoint Dewpoint Depression Visibility Wind Speed Wind Dir Waves Ship Positions

Brandelara II

Last reported at 2017-Sep-27 21:08 UTC. Time now 2017-Nov-23 02:05 UTC.
Position N 49°38' W 124°03'.
Warning: this ship's position is 56 days out of date.

Length 12 m.

Type: Sailing vessel. MMSI: 316016283.

Date/timePositionNaut miles runAvg speedWind from/ knotsBaromVisibWave heightAir tempDewpointWater temp
2017-Sep-27 21:08N 49°38' W 124°03'0 0.0
2017-Sep-27 20:59N 49°38' W 124°03'0 0.0
2017-Sep-27 20:29N 49°38' W 124°03'1 1.6
2017-Sep-27 20:00N 49°38' W 124°04'2 4.5
2017-Sep-27 19:30N 49°36' W 124°04'3 5.4
2017-Sep-27 19:00N 49°33' W 124°05'6 3.9
2017-Sep-27 17:22N 49°29' W 124°13'0 0.0
2017-Sep-27 17:00N 49°29' W 124°13'  
2017-Sep-24 01:51N 49°30' W 124°14'0 0.0
2017-Sep-24 01:30N 49°30' W 124°14'0 0.1
2017-Sep-24 01:00N 49°30' W 124°14'0 0.0
2017-Sep-24 00:30N 49°30' W 124°14'0 0.0
2017-Sep-24 00:00N 49°30' W 124°14'0 0.1
2017-Sep-23 23:31N 49°30' W 124°14'1 2.8
2017-Sep-23 23:00N 49°29' W 124°12'3 5.9
2017-Sep-23 22:30N 49°29' W 124°08'3 5.5
2017-Sep-23 21:59N 49°32' W 124°06'3 5.9
2017-Sep-23 21:30N 49°34' W 124°05'3 5.7
2017-Sep-23 21:00N 49°37' W 124°04'1 2.4
2017-Sep-23 20:30N 49°38' W 124°03'0 0.0
2017-Sep-23 20:00N 49°38' W 124°03'  

Dump ship's entire track history